sensor_id;sensor_type;location;lat;lon;timestamp;pressure;altitude;pressure_sealevel;temperature;humidity
17383;BME280;8809;51.892;8.384;2023-10-08T00:01:11;101095.56;;;26.66;58.82
17383;BME280;8809;51.892;8.384;2023-10-08T00:03:48;101091.09;;;26.65;58.71
17383;BME280;8809;51.892;8.384;2023-10-08T00:06:16;101096.53;;;26.62;58.98
17383;BME280;8809;51.892;8.384;2023-10-08T00:08:47;101091.19;;;26.60;58.83
17383;BME280;8809;51.892;8.384;2023-10-08T00:11:14;101094.78;;;26.58;58.85
17383;BME280;8809;51.892;8.384;2023-10-08T00:13:44;101103.59;;;26.65;58.90
17383;BME280;8809;51.892;8.384;2023-10-08T00:16:28;101100.25;;;26.52;59.21
17383;BME280;8809;51.892;8.384;2023-10-08T00:18:57;101118.03;;;26.54;59.07
17383;BME280;8809;51.892;8.384;2023-10-08T00:21:33;101121.66;;;26.52;59.28
17383;BME280;8809;51.892;8.384;2023-10-08T00:24:04;101119.13;;;26.43;59.24
17383;BME280;8809;51.892;8.384;2023-10-08T00:26:36;101110.44;;;26.27;59.90
17383;BME280;8809;51.892;8.384;2023-10-08T00:29:07;101117.41;;;26.37;59.58
17383;BME280;8809;51.892;8.384;2023-10-08T00:31:53;101130.59;;;26.51;59.25
17383;BME280;8809;51.892;8.384;2023-10-08T00:34:25;101115.72;;;26.32;59.90
17383;BME280;8809;51.892;8.384;2023-10-08T00:36:53;101120.22;;;26.28;59.79
17383;BME280;8809;51.892;8.384;2023-10-08T00:39:28;101108.66;;;26.24;60.20
17383;BME280;8809;51.892;8.384;2023-10-08T00:42:01;101116.78;;;26.17;60.51
17383;BME280;8809;51.892;8.384;2023-10-08T00:44:32;101118.72;;;26.06;60.98
17383;BME280;8809;51.892;8.384;2023-10-08T00:47:01;101125.78;;;26.11;60.81
17383;BME280;8809;51.892;8.384;2023-10-08T00:49:30;101139.97;;;26.16;60.79
17383;BME280;8809;51.892;8.384;2023-10-08T00:52:15;101132.81;;;26.20;60.24
17383;BME280;8809;51.892;8.384;2023-10-08T00:55:00;101135.38;;;26.26;60.23
17383;BME280;8809;51.892;8.384;2023-10-08T00:57:58;101140.78;;;26.23;60.44
17383;BME280;8809;51.892;8.384;2023-10-08T01:00:35;101150.84;;;26.04;61.33
17383;BME280;8809;51.892;8.384;2023-10-08T01:03:07;101152.53;;;26.11;60.96
17383;BME280;8809;51.892;8.384;2023-10-08T01:05:43;101149.94;;;26.05;61.33
17383;BME280;8809;51.892;8.384;2023-10-08T01:08:14;101153.53;;;26.04;61.18
17383;BME280;8809;51.892;8.384;2023-10-08T01:10:57;101159.91;;;25.93;61.81
17383;BME280;8809;51.892;8.384;2023-10-08T01:13:29;101172.41;;;25.92;62.32
17383;BME280;8809;51.892;8.384;2023-10-08T01:16:20;101166.03;;;26.01;63.10
17383;BME280;8809;51.892;8.384;2023-10-08T01:18:49;101162.47;;;26.03;62.40
17383;BME280;8809;51.892;8.384;2023-10-08T01:21:20;101158.13;;;25.95;63.12
17383;BME280;8809;51.892;8.384;2023-10-08T01:24:15;101160.81;;;25.93;62.99
17383;BME280;8809;51.892;8.384;2023-10-08T01:27:10;101173.16;;;26.03;62.89
17383;BME280;8809;51.892;8.384;2023-10-08T01:32:05;101143.97;;;25.85;64.17
17383;BME280;8809;51.892;8.384;2023-10-08T01:34:51;101150.41;;;25.67;64.84
17383;BME280;8809;51.892;8.384;2023-10-08T01:37:29;101151.34;;;25.65;64.56
17383;BME280;8809;51.892;8.384;2023-10-08T01:40:23;101145.03;;;25.70;65.48
17383;BME280;8809;51.892;8.384;2023-10-08T01:47:12;101165.50;;;25.73;65.63
17383;BME280;8809;51.892;8.384;2023-10-08T01:49:47;101169.03;;;25.75;64.98
17383;BME280;8809;51.892;8.384;2023-10-08T01:52:18;101162.03;;;25.66;65.37
17383;BME280;8809;51.892;8.384;2023-10-08T01:54:53;101168.38;;;25.50;65.08
17383;BME280;8809;51.892;8.384;2023-10-08T01:58:07;101179.03;;;25.55;64.60
17383;BME280;8809;51.892;8.384;2023-10-08T02:01:01;101201.25;;;25.63;64.75
17383;BME280;8809;51.892;8.384;2023-10-08T02:03:37;101235.09;;;25.64;63.67
17383;BME280;8809;51.892;8.384;2023-10-08T02:06:35;101246.84;;;25.41;62.88
17383;BME280;8809;51.892;8.384;2023-10-08T02:09:24;101248.78;;;25.23;62.95
17383;BME280;8809;51.892;8.384;2023-10-08T02:11:52;101232.91;;;25.01;63.46
17383;BME280;8809;51.892;8.384;2023-10-08T02:14:25;101229.41;;;24.96;63.24
17383;BME280;8809;51.892;8.384;2023-10-08T02:16:56;101228.56;;;24.87;63.03
17383;BME280;8809;51.892;8.384;2023-10-08T02:19:28;101234.78;;;24.93;61.93
17383;BME280;8809;51.892;8.384;2023-10-08T02:21:56;101201.88;;;24.82;62.48
17383;BME280;8809;51.892;8.384;2023-10-08T02:24:23;101220.75;;;24.56;63.81
17383;BME280;8809;51.892;8.384;2023-10-08T02:26:54;101216.34;;;24.49;63.74
17383;BME280;8809;51.892;8.384;2023-10-08T02:29:27;101206.53;;;24.56;63.37
17383;BME280;8809;51.892;8.384;2023-10-08T02:31:55;101209.19;;;24.59;62.57
17383;BME280;8809;51.892;8.384;2023-10-08T02:34:22;101198.63;;;24.40;62.51
17383;BME280;8809;51.892;8.384;2023-10-08T02:36:49;101194.19;;;24.32;62.26
17383;BME280;8809;51.892;8.384;2023-10-08T02:39:16;101189.50;;;24.72;60.83
17383;BME280;8809;51.892;8.384;2023-10-08T02:41:48;101220.69;;;24.61;59.83
17383;BME280;8809;51.892;8.384;2023-10-08T02:44:18;101258.16;;;24.50;60.58
17383;BME280;8809;51.892;8.384;2023-10-08T02:46:48;101251.13;;;24.26;60.94
17383;BME280;8809;51.892;8.384;2023-10-08T02:49:18;101188.00;;;24.27;61.17
17383;BME280;8809;51.892;8.384;2023-10-08T02:51:47;101207.53;;;24.32;60.74
17383;BME280;8809;51.892;8.384;2023-10-08T02:54:16;101248.41;;;24.35;60.61
17383;BME280;8809;51.892;8.384;2023-10-08T02:56:44;101276.88;;;24.33;60.18
17383;BME280;8809;51.892;8.384;2023-10-08T02:59:12;101289.34;;;24.27;60.14
17383;BME280;8809;51.892;8.384;2023-10-08T03:01:40;101241.38;;;24.05;60.76
17383;BME280;8809;51.892;8.384;2023-10-08T03:04:10;101207.66;;;24.01;60.81
17383;BME280;8809;51.892;8.384;2023-10-08T03:06:44;101198.81;;;23.92;61.38
17383;BME280;8809;51.892;8.384;2023-10-08T03:09:15;101225.47;;;23.81;61.53
17383;BME280;8809;51.892;8.384;2023-10-08T03:11:48;101263.69;;;23.80;61.18
17383;BME280;8809;51.892;8.384;2023-10-08T03:14:18;101301.88;;;23.73;60.43
17383;BME280;8809;51.892;8.384;2023-10-08T03:16:52;101301.88;;;23.59;61.66
17383;BME280;8809;51.892;8.384;2023-10-08T03:19:25;101288.56;;;23.43;62.06
17383;BME280;8809;51.892;8.384;2023-10-08T03:21:56;101291.19;;;23.38;62.27
17383;BME280;8809;51.892;8.384;2023-10-08T03:24:24;101284.09;;;23.29;62.39
17383;BME280;8809;51.892;8.384;2023-10-08T03:27:04;101272.56;;;23.34;62.20
17383;BME280;8809;51.892;8.384;2023-10-08T03:29:38;101263.66;;;23.47;61.57
17383;BME280;8809;51.892;8.384;2023-10-08T03:32:08;101267.22;;;23.46;61.52
17383;BME280;8809;51.892;8.384;2023-10-08T03:34:44;101292.97;;;23.31;62.06
17383;BME280;8809;51.892;8.384;2023-10-08T03:37:13;101298.31;;;23.25;61.55
17383;BME280;8809;51.892;8.384;2023-10-08T03:39:46;101304.50;;;23.18;61.81
17383;BME280;8809;51.892;8.384;2023-10-08T03:42:26;101303.59;;;23.19;61.99
17383;BME280;8809;51.892;8.384;2023-10-08T03:45:00;101299.16;;;23.18;62.01
17383;BME280;8809;51.892;8.384;2023-10-08T03:47:37;101308.06;;;23.23;61.87
17383;BME280;8809;51.892;8.384;2023-10-08T03:50:07;101312.50;;;23.30;61.32
17383;BME280;8809;51.892;8.384;2023-10-08T03:52:35;101297.38;;;23.10;61.70
17383;BME280;8809;51.892;8.384;2023-10-08T03:55:05;101308.03;;;23.13;61.63
17383;BME280;8809;51.892;8.384;2023-10-08T03:57:47;101324.00;;;23.11;61.48
17383;BME280;8809;51.892;8.384;2023-10-08T04:00:22;101310.72;;;23.13;61.43
17383;BME280;8809;51.892;8.384;2023-10-08T04:02:55;101322.25;;;23.13;61.41
17383;BME280;8809;51.892;8.384;2023-10-08T04:05:31;101330.22;;;23.04;61.28
17383;BME280;8809;51.892;8.384;2023-10-08T04:08:10;101324.88;;;22.97;61.67
17383;BME280;8809;51.892;8.384;2023-10-08T04:10:55;101316.88;;;22.87;61.94
17383;BME280;8809;51.892;8.384;2023-10-08T04:13:37;101331.94;;;22.88;61.92
17383;BME280;8809;51.892;8.384;2023-10-08T04:16:05;101335.47;;;22.75;62.33
17383;BME280;8809;51.892;8.384;2023-10-08T04:18:32;101319.53;;;22.86;61.63
17383;BME280;8809;51.892;8.384;2023-10-08T04:21:08;101321.25;;;22.75;62.13
17383;BME280;8809;51.892;8.384;2023-10-08T04:23:39;101316.84;;;22.81;61.58
17383;BME280;8809;51.892;8.384;2023-10-08T04:26:06;101322.09;;;22.72;61.89
17383;BME280;8809;51.892;8.384;2023-10-08T04:28:34;101332.72;;;22.66;61.63
17383;BME280;8809;51.892;8.384;2023-10-08T04:31:01;101328.25;;;22.54;62.08
17383;BME280;8809;51.892;8.384;2023-10-08T04:33:41;101319.38;;;22.54;61.94
17383;BME280;8809;51.892;8.384;2023-10-08T04:36:11;101316.69;;;22.48;62.05
17383;BME280;8809;51.892;8.384;2023-10-08T04:38:43;101331.72;;;22.38;62.32
17383;BME280;8809;51.892;8.384;2023-10-08T04:41:14;101337.03;;;22.38;62.36
17383;BME280;8809;51.892;8.384;2023-10-08T04:43:45;101329.00;;;22.26;62.31
17383;BME280;8809;51.892;8.384;2023-10-08T04:46:15;101324.50;;;22.20;62.47
17383;BME280;8809;51.892;8.384;2023-10-08T04:49:05;101341.41;;;22.30;62.08
17383;BME280;8809;51.892;8.384;2023-10-08T04:51:46;101336.03;;;22.23;62.24
17383;BME280;8809;51.892;8.384;2023-10-08T04:54:14;101349.31;;;22.21;62.28
17383;BME280;8809;51.892;8.384;2023-10-08T04:56:43;101352.81;;;22.11;62.24
17383;BME280;8809;51.892;8.384;2023-10-08T04:59:13;101349.34;;;22.24;61.76
17383;BME280;8809;51.892;8.384;2023-10-08T05:01:40;101356.44;;;22.25;61.78
17383;BME280;8809;51.892;8.384;2023-10-08T05:04:14;101369.69;;;22.20;61.64
17383;BME280;8809;51.892;8.384;2023-10-08T05:06:54;101375.94;;;22.24;61.40
17383;BME280;8809;51.892;8.384;2023-10-08T05:09:41;101390.09;;;22.20;61.49
17383;BME280;8809;51.892;8.384;2023-10-08T05:12:20;101408.63;;;22.08;62.00
17383;BME280;8809;51.892;8.384;2023-10-08T05:15:00;101425.38;;;22.02;61.83
17383;BME280;8809;51.892;8.384;2023-10-08T05:17:46;101426.28;;;22.04;61.70
17383;BME280;8809;51.892;8.384;2023-10-08T05:20:24;101440.44;;;21.99;62.19
17383;BME280;8809;51.892;8.384;2023-10-08T05:23:09;101429.81;;;22.03;61.60
17383;BME280;8809;51.892;8.384;2023-10-08T05:26:07;101440.44;;;22.00;61.58
17383;BME280;8809;51.892;8.384;2023-10-08T05:28:36;101444.75;;;21.89;61.97
17383;BME280;8809;51.892;8.384;2023-10-08T05:31:16;101429.59;;;21.82;62.12
17383;BME280;8809;51.892;8.384;2023-10-08T05:34:02;101426.97;;;21.83;61.71
17383;BME280;8809;51.892;8.384;2023-10-08T05:36:44;101437.53;;;21.77;62.08
17383;BME280;8809;51.892;8.384;2023-10-08T05:39:18;101462.28;;;21.73;62.16
17383;BME280;8809;51.892;8.384;2023-10-08T05:41:55;101462.19;;;21.64;62.40
17383;BME280;8809;51.892;8.384;2023-10-08T05:44:39;101456.00;;;21.65;62.27
17383;BME280;8809;51.892;8.384;2023-10-08T05:47:11;101442.69;;;21.59;62.62
17383;BME280;8809;51.892;8.384;2023-10-08T05:50:05;101447.00;;;21.48;62.86
17383;BME280;8809;51.892;8.384;2023-10-08T05:53:04;101443.47;;;21.49;62.87
17383;BME280;8809;51.892;8.384;2023-10-08T05:55:42;101449.59;;;21.43;62.94
17383;BME280;8809;51.892;8.384;2023-10-08T05:58:13;101445.97;;;21.35;63.32
17383;BME280;8809;51.892;8.384;2023-10-08T06:00:40;101445.22;;;21.47;62.91
17383;BME280;8809;51.892;8.384;2023-10-08T06:03:30;101460.16;;;21.39;63.13
17383;BME280;8809;51.892;8.384;2023-10-08T06:06:06;101437.69;;;21.11;63.71
17383;BME280;8809;51.892;8.384;2023-10-08T06:08:51;101463.38;;;21.14;63.76
17383;BME280;8809;51.892;8.384;2023-10-08T06:11:33;101470.34;;;21.07;64.13
17383;BME280;8809;51.892;8.384;2023-10-08T06:14:07;101490.63;;;21.00;64.47
17383;BME280;8809;51.892;8.384;2023-10-08T06:16:53;101486.00;;;20.87;64.24
17383;BME280;8809;51.892;8.384;2023-10-08T06:19:38;101497.78;;;21.07;64.18
17383;BME280;8809;51.892;8.384;2023-10-08T06:22:04;101504.66;;;20.92;64.48
17383;BME280;8809;51.892;8.384;2023-10-08T06:24:31;101508.19;;;20.92;64.30
17383;BME280;8809;51.892;8.384;2023-10-08T06:27:01;101516.84;;;20.79;64.84
17383;BME280;8809;51.892;8.384;2023-10-08T06:29:30;101531.09;;;20.84;64.59
17383;BME280;8809;51.892;8.384;2023-10-08T06:31:57;101526.78;;;20.95;63.83
17383;BME280;8809;51.892;8.384;2023-10-08T06:34:27;101521.22;;;20.76;64.67
17383;BME280;8809;51.892;8.384;2023-10-08T06:36:56;101534.56;;;20.82;64.55
17383;BME280;8809;51.892;8.384;2023-10-08T06:39:24;101536.38;;;20.86;64.32
17383;BME280;8809;51.892;8.384;2023-10-08T06:41:59;101534.47;;;20.74;64.11
17383;BME280;8809;51.892;8.384;2023-10-08T06:44:28;101539.84;;;20.80;64.65
17383;BME280;8809;51.892;8.384;2023-10-08T06:46:55;101544.28;;;20.81;64.19
17383;BME280;8809;51.892;8.384;2023-10-08T06:49:24;101544.47;;;20.93;63.89
17383;BME280;8809;51.892;8.384;2023-10-08T06:51:51;101553.28;;;20.91;63.79
17383;BME280;8809;51.892;8.384;2023-10-08T06:54:19;101561.94;;;20.79;64.44
17383;BME280;8809;51.892;8.384;2023-10-08T06:56:48;101549.31;;;20.63;64.74
17383;BME280;8809;51.892;8.384;2023-10-08T06:59:18;101556.34;;;20.61;64.81
17383;BME280;8809;51.892;8.384;2023-10-08T07:01:49;101571.19;;;20.50;65.14
17383;BME280;8809;51.892;8.384;2023-10-08T07:04:17;101567.69;;;20.52;65.06
17383;BME280;8809;51.892;8.384;2023-10-08T07:06:47;101573.75;;;20.44;65.79
17383;BME280;8809;51.892;8.384;2023-10-08T07:09:17;101577.31;;;20.46;65.55
17383;BME280;8809;51.892;8.384;2023-10-08T07:11:55;101592.50;;;20.57;65.38
17383;BME280;8809;51.892;8.384;2023-10-08T07:14:22;101612.88;;;20.60;65.14
17383;BME280;8809;51.892;8.384;2023-10-08T07:16:54;101610.47;;;20.73;64.54
17383;BME280;8809;51.892;8.384;2023-10-08T07:19:24;101592.78;;;20.72;64.70
17383;BME280;8809;51.892;8.384;2023-10-08T07:21:59;101582.19;;;20.74;64.48
17383;BME280;8809;51.892;8.384;2023-10-08T07:24:29;101589.94;;;20.62;64.99
17383;BME280;8809;51.892;8.384;2023-10-08T07:27:01;101590.78;;;20.59;65.03
17383;BME280;8809;51.892;8.384;2023-10-08T07:29:34;101577.50;;;20.56;65.72
17383;BME280;8809;51.892;8.384;2023-10-08T07:32:03;101566.25;;;20.72;64.95
17383;BME280;8809;51.892;8.384;2023-10-08T07:34:35;101559.06;;;20.64;65.17
17383;BME280;8809;51.892;8.384;2023-10-08T07:37:02;101574.06;;;20.63;65.17
17383;BME280;8809;51.892;8.384;2023-10-08T07:39:31;101573.38;;;20.77;64.82
17383;BME280;8809;51.892;8.384;2023-10-08T07:42:03;101574.28;;;20.76;65.12
17383;BME280;8809;51.892;8.384;2023-10-08T07:44:31;101580.41;;;20.73;65.04
17383;BME280;8809;51.892;8.384;2023-10-08T07:47:02;101586.59;;;20.72;65.01
17383;BME280;8809;51.892;8.384;2023-10-08T07:49:35;101568.94;;;20.74;64.98
17383;BME280;8809;51.892;8.384;2023-10-08T07:52:02;101572.50;;;20.74;65.24
17383;BME280;8809;51.892;8.384;2023-10-08T07:54:31;101584.88;;;20.77;65.20
17383;BME280;8809;51.892;8.384;2023-10-08T07:57:00;101602.69;;;20.84;65.21
17383;BME280;8809;51.892;8.384;2023-10-08T07:59:35;101614.19;;;20.85;65.11
17383;BME280;8809;51.892;8.384;2023-10-08T08:02:05;101626.63;;;20.89;65.03
17383;BME280;8809;51.892;8.384;2023-10-08T08:04:35;101633.03;;;21.01;64.76
17383;BME280;8809;51.892;8.384;2023-10-08T08:07:03;101641.75;;;20.93;65.10
17383;BME280;8809;51.892;8.384;2023-10-08T08:09:31;101639.00;;;20.88;64.76
17383;BME280;8809;51.892;8.384;2023-10-08T08:12:05;101629.97;;;20.77;65.25
17383;BME280;8809;51.892;8.384;2023-10-08T08:14:34;101630.94;;;20.82;65.23
17383;BME280;8809;51.892;8.384;2023-10-08T08:17:05;101637.13;;;20.81;65.11
17383;BME280;8809;51.892;8.384;2023-10-08T08:19:40;101628.50;;;20.94;65.01
17383;BME280;8809;51.892;8.384;2023-10-08T08:22:07;101607.31;;;20.97;64.61
17383;BME280;8809;51.892;8.384;2023-10-08T08:24:34;101606.63;;;21.10;64.35
17383;BME280;8809;51.892;8.384;2023-10-08T08:27:03;101615.31;;;21.00;64.79
17383;BME280;8809;51.892;8.384;2023-10-08T08:29:37;101609.19;;;21.06;64.93
17383;BME280;8809;51.892;8.384;2023-10-08T08:32:12;101615.25;;;20.94;65.47
17383;BME280;8809;51.892;8.384;2023-10-08T08:34:41;101626.56;;;20.84;65.80
17383;BME280;8809;51.892;8.384;2023-10-08T08:37:10;101622.06;;;20.80;65.89
17383;BME280;8809;51.892;8.384;2023-10-08T08:39:38;101623.75;;;20.73;66.26
17383;BME280;8809;51.892;8.384;2023-10-08T08:42:05;101644.13;;;20.78;65.97
17383;BME280;8809;51.892;8.384;2023-10-08T08:44:35;101654.56;;;20.68;66.21
17383;BME280;8809;51.892;8.384;2023-10-08T08:47:06;101668.00;;;20.76;65.96
17383;BME280;8809;51.892;8.384;2023-10-08T08:49:38;101677.72;;;20.77;66.04
17383;BME280;8809;51.892;8.384;2023-10-08T08:52:06;101690.22;;;20.86;66.00
17383;BME280;8809;51.892;8.384;2023-10-08T08:54:33;101696.56;;;20.92;65.13
17383;BME280;8809;51.892;8.384;2023-10-08T08:57:03;101697.00;;;20.68;64.69
17383;BME280;8809;51.892;8.384;2023-10-08T08:59:32;101697.47;;;20.94;65.19
17383;BME280;8809;51.892;8.384;2023-10-08T09:02:02;101686.94;;;20.99;65.36
17383;BME280;8809;51.892;8.384;2023-10-08T09:04:33;101666.59;;;20.99;65.56
17383;BME280;8809;51.892;8.384;2023-10-08T09:07:04;101657.78;;;21.00;65.94
17383;BME280;8809;51.892;8.384;2023-10-08T09:09:32;101660.28;;;20.91;65.89
17383;BME280;8809;51.892;8.384;2023-10-08T09:11:59;101677.16;;;20.96;65.86
17383;BME280;8809;51.892;8.384;2023-10-08T09:14:27;101697.63;;;21.05;65.25
17383;BME280;8809;51.892;8.384;2023-10-08T09:16:57;101707.53;;;21.14;65.17
17383;BME280;8809;51.892;8.384;2023-10-08T09:19:25;101703.81;;;21.05;65.96
17383;BME280;8809;51.892;8.384;2023-10-08T09:22:04;101707.47;;;21.10;66.04
17383;BME280;8809;51.892;8.384;2023-10-08T09:24:32;101691.91;;;21.32;64.75
17383;BME280;8809;51.892;8.384;2023-10-08T09:27:02;101681.38;;;21.38;65.01
17383;BME280;8809;51.892;8.384;2023-10-08T09:29:29;101679.84;;;21.55;64.31
17383;BME280;8809;51.892;8.384;2023-10-08T09:31:57;101649.00;;;21.65;64.29
17383;BME280;8809;51.892;8.384;2023-10-08T09:34:27;101635.75;;;21.66;64.30
17383;BME280;8809;51.892;8.384;2023-10-08T09:36:55;101651.75;;;21.72;63.55
17383;BME280;8809;51.892;8.384;2023-10-08T09:39:24;101674.69;;;21.66;62.96
17383;BME280;8809;51.892;8.384;2023-10-08T09:41:54;101652.75;;;21.80;63.32
17383;BME280;8809;51.892;8.384;2023-10-08T09:44:21;101653.69;;;21.85;62.49
17383;BME280;8809;51.892;8.384;2023-10-08T09:46:52;101668.69;;;21.79;62.92
17383;BME280;8809;51.892;8.384;2023-10-08T09:49:28;101692.13;;;22.09;62.88
17383;BME280;8809;51.892;8.384;2023-10-08T09:52:00;101710.94;;;22.27;61.44
17383;BME280;8809;51.892;8.384;2023-10-08T09:54:31;101700.22;;;22.21;61.21
17383;BME280;8809;51.892;8.384;2023-10-08T09:57:05;101696.69;;;22.22;61.02
17383;BME280;8809;51.892;8.384;2023-10-08T09:59:33;101695.75;;;22.17;61.16
17383;BME280;8809;51.892;8.384;2023-10-08T10:02:01;101712.50;;;22.10;60.00
17383;BME280;8809;51.892;8.384;2023-10-08T10:04:30;101726.56;;;22.00;61.45
17383;BME280;8809;51.892;8.384;2023-10-08T10:06:58;101733.66;;;22.04;60.75
17383;BME280;8809;51.892;8.384;2023-10-08T10:09:27;101746.03;;;21.99;60.37
17383;BME280;8809;51.892;8.384;2023-10-08T10:11:55;101750.50;;;22.03;61.92
17383;BME280;8809;51.892;8.384;2023-10-08T10:14:23;101738.16;;;22.08;61.18
17383;BME280;8809;51.892;8.384;2023-10-08T10:17:13;101728.28;;;21.98;61.39
17383;BME280;8809;51.892;8.384;2023-10-08T10:19:42;101732.81;;;22.05;61.14
17383;BME280;8809;51.892;8.384;2023-10-08T10:22:14;101733.72;;;22.07;61.72
17383;BME280;8809;51.892;8.384;2023-10-08T10:24:42;101732.13;;;22.19;61.45
17383;BME280;8809;51.892;8.384;2023-10-08T10:27:16;101730.25;;;22.14;59.69
17383;BME280;8809;51.892;8.384;2023-10-08T10:29:43;101739.09;;;22.13;60.80
17383;BME280;8809;51.892;8.384;2023-10-08T10:32:14;101739.06;;;22.08;59.85
17383;BME280;8809;51.892;8.384;2023-10-08T10:34:42;101733.91;;;22.22;60.88
17383;BME280;8809;51.892;8.384;2023-10-08T10:37:10;101720.81;;;22.40;60.63
17383;BME280;8809;51.892;8.384;2023-10-08T10:39:51;101708.34;;;22.35;61.15
17383;BME280;8809;51.892;8.384;2023-10-08T10:42:20;101696.06;;;22.46;59.68
17383;BME280;8809;51.892;8.384;2023-10-08T10:44:48;101703.59;;;22.85;60.13
17383;BME280;8809;51.892;8.384;2023-10-08T10:47:17;101703.69;;;22.96;60.24
17383;BME280;8809;51.892;8.384;2023-10-08T10:49:54;101685.13;;;23.09;60.07
17383;BME280;8809;51.892;8.384;2023-10-08T10:52:41;101696.69;;;23.10;59.77
17383;BME280;8809;51.892;8.384;2023-10-08T10:55:18;101710.06;;;23.20;59.04
17383;BME280;8809;51.892;8.384;2023-10-08T10:57:52;101718.19;;;23.36;59.65
17383;BME280;8809;51.892;8.384;2023-10-08T11:00:22;101706.84;;;23.61;58.07
17383;BME280;8809;51.892;8.384;2023-10-08T11:03:21;101706.88;;;23.70;56.52
17383;BME280;8809;51.892;8.384;2023-10-08T11:05:53;101705.13;;;23.71;56.52
17383;BME280;8809;51.892;8.384;2023-10-08T11:08:21;101710.53;;;23.87;56.39
17383;BME280;8809;51.892;8.384;2023-10-08T11:10:52;101701.47;;;23.58;54.32
17383;BME280;8809;51.892;8.384;2023-10-08T11:13:25;101708.47;;;23.47;54.12
17383;BME280;8809;51.892;8.384;2023-10-08T11:16:03;101712.94;;;23.48;54.34
17383;BME280;8809;51.892;8.384;2023-10-08T11:18:30;101703.16;;;23.44;55.88
17383;BME280;8809;51.892;8.384;2023-10-08T11:21:06;101703.28;;;23.59;56.91
17383;BME280;8809;51.892;8.384;2023-10-08T11:23:42;101697.91;;;23.56;56.11
17383;BME280;8809;51.892;8.384;2023-10-08T11:26:12;101695.13;;;23.41;55.76
17383;BME280;8809;51.892;8.384;2023-10-08T11:28:43;101699.59;;;23.42;54.58
17383;BME280;8809;51.892;8.384;2023-10-08T11:31:16;101696.00;;;23.35;54.33
17383;BME280;8809;51.892;8.384;2023-10-08T11:33:46;101716.19;;;23.09;54.05
17383;BME280;8809;51.892;8.384;2023-10-08T11:36:20;101711.91;;;23.27;56.08
17383;BME280;8809;51.892;8.384;2023-10-08T11:38:53;101718.75;;;22.98;55.38
17383;BME280;8809;51.892;8.384;2023-10-08T11:41:27;101725.97;;;23.10;55.09
17383;BME280;8809;51.892;8.384;2023-10-08T11:43:57;101714.31;;;22.99;53.05
17383;BME280;8809;51.892;8.384;2023-10-08T11:46:26;101709.16;;;23.17;54.05
17383;BME280;8809;51.892;8.384;2023-10-08T11:48:58;101699.97;;;22.77;53.56
17383;BME280;8809;51.892;8.384;2023-10-08T11:51:31;101695.38;;;22.65;53.13
17383;BME280;8809;51.892;8.384;2023-10-08T11:53:59;101699.81;;;22.66;53.03
17383;BME280;8809;51.892;8.384;2023-10-08T11:56:26;101693.09;;;23.03;54.71
17383;BME280;8809;51.892;8.384;2023-10-08T11:58:56;101685.00;;;22.91;56.68
17383;BME280;8809;51.892;8.384;2023-10-08T12:01:23;101695.72;;;23.02;57.48
17383;BME280;8809;51.892;8.384;2023-10-08T12:03:52;101687.03;;;23.24;56.81
17383;BME280;8809;51.892;8.384;2023-10-08T12:06:25;101685.13;;;23.09;55.39
17383;BME280;8809;51.892;8.384;2023-10-08T12:08:55;101673.63;;;23.12;55.97
17383;BME280;8809;51.892;8.384;2023-10-08T12:11:25;101674.59;;;23.21;54.98
17383;BME280;8809;51.892;8.384;2023-10-08T12:13:58;101676.16;;;22.98;56.17
17383;BME280;8809;51.892;8.384;2023-10-08T12:16:25;101677.06;;;22.99;54.35
17383;BME280;8809;51.892;8.384;2023-10-08T12:18:56;101673.34;;;22.75;55.69
17383;BME280;8809;51.892;8.384;2023-10-08T12:21:25;101673.50;;;22.95;55.58
17383;BME280;8809;51.892;8.384;2023-10-08T12:23:57;101669.94;;;22.94;55.73
17383;BME280;8809;51.892;8.384;2023-10-08T12:26:24;101662.72;;;22.80;56.06
17383;BME280;8809;51.892;8.384;2023-10-08T12:28:52;101655.69;;;22.85;56.12
17383;BME280;8809;51.892;8.384;2023-10-08T12:31:21;101648.53;;;22.78;56.55
17383;BME280;8809;51.892;8.384;2023-10-08T12:33:49;101652.94;;;22.76;55.61
17383;BME280;8809;51.892;8.384;2023-10-08T12:36:19;101639.69;;;22.82;56.20
17383;BME280;8809;51.892;8.384;2023-10-08T12:38:49;101633.56;;;22.92;56.61
17383;BME280;8809;51.892;8.384;2023-10-08T12:41:23;101632.69;;;22.94;55.44
17383;BME280;8809;51.892;8.384;2023-10-08T12:43:50;101624.59;;;22.78;55.29
17383;BME280;8809;51.892;8.384;2023-10-08T12:46:21;101628.25;;;22.98;56.71
17383;BME280;8809;51.892;8.384;2023-10-08T12:48:51;101627.38;;;22.98;54.93
17383;BME280;8809;51.892;8.384;2023-10-08T12:51:20;101622.91;;;22.92;53.31
17383;BME280;8809;51.892;8.384;2023-10-08T12:53:49;101616.75;;;22.96;54.87
17383;BME280;8809;51.892;8.384;2023-10-08T12:56:25;101610.56;;;23.03;56.98
17383;BME280;8809;51.892;8.384;2023-10-08T12:58:57;101612.50;;;23.28;55.76
17383;BME280;8809;51.892;8.384;2023-10-08T13:01:26;101605.47;;;23.46;55.75
17383;BME280;8809;51.892;8.384;2023-10-08T13:03:55;101608.25;;;23.59;55.45
17383;BME280;8809;51.892;8.384;2023-10-08T13:06:27;101602.03;;;23.65;56.42
17383;BME280;8809;51.892;8.384;2023-10-08T13:08:55;101606.59;;;23.95;54.49
17383;BME280;8809;51.892;8.384;2023-10-08T13:11:24;101608.38;;;23.97;53.21
17383;BME280;8809;51.892;8.384;2023-10-08T13:13:52;101597.75;;;24.17;53.23
17383;BME280;8809;51.892;8.384;2023-10-08T13:16:19;101596.03;;;24.42;50.51
17383;BME280;8809;51.892;8.384;2023-10-08T13:18:50;101601.38;;;24.28;48.81
17383;BME280;8809;51.892;8.384;2023-10-08T13:21:18;101597.78;;;24.23;49.13
17383;BME280;8809;51.892;8.384;2023-10-08T13:23:45;101597.81;;;24.22;48.18
17383;BME280;8809;51.892;8.384;2023-10-08T13:26:16;101599.59;;;24.35;50.46
17383;BME280;8809;51.892;8.384;2023-10-08T13:28:43;101596.06;;;24.53;50.97
17383;BME280;8809;51.892;8.384;2023-10-08T13:31:11;101585.38;;;24.62;49.82
17383;BME280;8809;51.892;8.384;2023-10-08T13:33:39;101596.94;;;24.81;49.57
17383;BME280;8809;51.892;8.384;2023-10-08T13:36:10;101603.16;;;25.11;50.13